createdAt,value
2023-05-13T00:00:25.371Z,101490.75
2023-05-13T00:02:52.297Z,101487.69
2023-05-13T00:05:18.713Z,101488.53
2023-05-13T00:07:45.114Z,101490.47
2023-05-13T00:10:11.869Z,101482.31
2023-05-13T00:12:38.262Z,101484.47
2023-05-13T00:15:05.154Z,101485.78
2023-05-13T00:17:31.574Z,101486.91
2023-05-13T00:19:58.067Z,101488.91
2023-05-13T00:22:24.475Z,101489.75
2023-05-13T00:24:50.881Z,101493.66
2023-05-13T00:27:17.235Z,101493.03
2023-05-13T00:29:43.630Z,101489.59
2023-05-13T00:32:10.042Z,101502.66
2023-05-13T00:34:36.400Z,101500.75
2023-05-13T00:37:02.866Z,101500.63
2023-05-13T00:39:29.285Z,101501.03
2023-05-13T00:41:55.760Z,101501.00
2023-05-13T00:44:22.195Z,101509.28
2023-05-13T00:46:49.777Z,101510.06
2023-05-13T00:49:16.386Z,101509.91
2023-05-13T00:51:43.087Z,101517.59
2023-05-13T00:54:09.449Z,101513.59
2023-05-13T00:56:38.128Z,101511.41
2023-05-13T00:59:04.875Z,101507.94
2023-05-13T01:01:50.417Z,101512.78
2023-05-13T01:04:36.542Z,101514.16
2023-05-13T01:07:25.448Z,101519.81
2023-05-13T01:10:13.548Z,101519.47
2023-05-13T01:12:45.225Z,101510.38
2023-05-13T01:15:15.766Z,101521.69
2023-05-13T01:17:50.522Z,101529.88
2023-05-13T01:20:22.453Z,101533.69
2023-05-13T01:22:49.683Z,101533.56
2023-05-13T01:25:16.422Z,101532.72
2023-05-13T01:27:42.829Z,101536.22
2023-05-13T01:30:10.192Z,101534.78
2023-05-13T01:32:38.098Z,101545.81
2023-05-13T01:35:05.990Z,101537.88
2023-05-13T01:41:19.305Z,101542.44
2023-05-13T01:43:45.730Z,101545.31
2023-05-13T01:46:13.242Z,101544.63
2023-05-13T01:48:39.663Z,101550.47
2023-05-13T01:51:06.601Z,101551.34
2023-05-13T01:53:32.957Z,101550.28
2023-05-13T01:55:59.615Z,101550.91
2023-05-13T01:58:25.973Z,101546.88
2023-05-13T02:00:52.348Z,101548.78
2023-05-13T02:03:19.152Z,101547.66
2023-05-13T02:05:46.721Z,101541.69
2023-05-13T02:08:13.131Z,101545.00
2023-05-13T02:10:39.637Z,101541.91
2023-05-13T02:13:06.042Z,101547.81
2023-05-13T02:15:32.399Z,101547.06
2023-05-13T02:17:58.799Z,101554.66
2023-05-13T02:20:26.365Z,101548.44
2023-05-13T02:22:52.731Z,101554.41
2023-05-13T02:25:19.166Z,101552.47
2023-05-13T02:27:45.522Z,101553.88
2023-05-13T02:30:12.841Z,101555.00
2023-05-13T02:32:42.759Z,101553.41
2023-05-13T02:35:10.288Z,101555.56
2023-05-13T02:37:36.857Z,101557.03
2023-05-13T02:40:03.475Z,101554.84
2023-05-13T02:42:29.890Z,101556.28
2023-05-13T02:44:56.237Z,101557.69
2023-05-13T02:47:22.794Z,101554.75
2023-05-13T02:49:49.217Z,101558.00
2023-05-13T02:52:15.590Z,101561.69
2023-05-13T02:54:41.976Z,101555.50
2023-05-13T02:57:08.384Z,101558.84
2023-05-13T02:59:34.755Z,101559.97
2023-05-13T03:02:01.114Z,101564.22
2023-05-13T03:04:27.468Z,101552.22
2023-05-13T03:06:53.835Z,101560.16
2023-05-13T03:09:20.331Z,101560.50
2023-05-13T03:11:46.955Z,101567.44
2023-05-13T03:14:13.329Z,101564.81
2023-05-13T03:16:39.791Z,101563.78
2023-05-13T03:19:06.253Z,101570.69
2023-05-13T03:21:32.706Z,101569.50
2023-05-13T03:23:59.093Z,101574.38
2023-05-13T03:26:26.021Z,101565.09
2023-05-13T03:28:52.379Z,101572.22
2023-05-13T03:31:18.820Z,101568.19
2023-05-13T03:33:45.227Z,101573.09
2023-05-13T03:36:11.599Z,101576.81
2023-05-13T03:38:37.968Z,101581.25
2023-05-13T03:41:04.340Z,101577.97
2023-05-13T03:43:30.724Z,101576.25
2023-05-13T03:45:57.166Z,101575.56
2023-05-13T03:48:23.546Z,101579.53
2023-05-13T03:50:49.952Z,101581.53
2023-05-13T03:53:17.190Z,101575.63
2023-05-13T03:55:43.554Z,101580.00
2023-05-13T03:58:14.738Z,101581.19
2023-05-13T04:00:42.286Z,101583.06
2023-05-13T04:03:10.546Z,101584.59
2023-05-13T04:05:36.982Z,101593.97
2023-05-13T04:08:03.372Z,101596.78
2023-05-13T04:10:29.746Z,101598.03
2023-05-13T04:12:56.310Z,101609.34
2023-05-13T04:15:22.686Z,101612.47
2023-05-13T04:17:49.088Z,101609.69
2023-05-13T04:20:15.524Z,101612.94
2023-05-13T04:22:41.893Z,101619.81
2023-05-13T04:25:08.744Z,101612.38
2023-05-13T04:27:35.142Z,101622.00
2023-05-13T04:30:01.784Z,101619.63
2023-05-13T04:32:28.264Z,101624.72
2023-05-13T04:34:54.933Z,101626.88
2023-05-13T04:37:21.317Z,101624.78
2023-05-13T04:39:48.350Z,101627.69
2023-05-13T04:42:15.266Z,101636.41
2023-05-13T04:44:41.664Z,101639.88
2023-05-13T04:47:08.202Z,101637.16
2023-05-13T04:49:34.718Z,101638.78
2023-05-13T04:52:03.175Z,101640.25
2023-05-13T04:54:29.615Z,101637.66
2023-05-13T04:56:56.382Z,101640.94
2023-05-13T04:59:22.895Z,101638.13
2023-05-13T05:01:49.385Z,101642.25
2023-05-13T05:04:16.046Z,101639.41
2023-05-13T05:06:42.497Z,101643.09
2023-05-13T05:09:09.510Z,101650.03
2023-05-13T05:11:35.901Z,101648.84
2023-05-13T05:14:02.448Z,101656.56
2023-05-13T05:16:28.874Z,101656.03
2023-05-13T05:18:55.523Z,101665.25
2023-05-13T05:21:22.056Z,101662.84
2023-05-13T05:23:48.510Z,101653.44
2023-05-13T05:26:14.881Z,101656.88
2023-05-13T05:28:42.412Z,101658.41
2023-05-13T05:31:09.747Z,101663.09
2023-05-13T05:33:36.836Z,101660.00
2023-05-13T05:36:03.548Z,101667.91
2023-05-13T05:38:29.897Z,101669.16
2023-05-13T05:40:56.365Z,101678.75
2023-05-13T05:43:22.729Z,101674.94
2023-05-13T05:45:49.222Z,101662.22
2023-05-13T05:48:15.779Z,101671.88
2023-05-13T05:50:42.211Z,101675.75
2023-05-13T05:53:08.582Z,101678.69
2023-05-13T05:55:34.966Z,101671.50
2023-05-13T05:58:05.485Z,101677.94
2023-05-13T06:00:33.137Z,101677.28
2023-05-13T06:02:59.742Z,101680.06
2023-05-13T06:05:26.290Z,101675.75
2023-05-13T06:07:52.685Z,101674.72
2023-05-13T06:10:19.331Z,101679.81
2023-05-13T06:12:45.907Z,101684.94
2023-05-13T06:15:12.406Z,101680.09
2023-05-13T06:17:39.458Z,101677.53
2023-05-13T06:20:06.598Z,101680.63
2023-05-13T06:22:33.087Z,101673.09
2023-05-13T06:24:59.492Z,101678.13
2023-05-13T06:27:25.924Z,101687.91
2023-05-13T06:29:52.330Z,101674.78
2023-05-13T06:32:18.791Z,101683.00
2023-05-13T06:34:45.905Z,101679.88
2023-05-13T06:37:13.603Z,101684.34
2023-05-13T06:39:41.189Z,101679.66
2023-05-13T06:42:07.588Z,101674.59
2023-05-13T06:44:34.018Z,101674.88
2023-05-13T06:47:02.825Z,101670.94
2023-05-13T06:49:29.363Z,101667.66
2023-05-13T06:51:55.735Z,101663.94
2023-05-13T06:54:22.121Z,101665.16
2023-05-13T06:56:48.576Z,101668.31
2023-05-13T06:59:15.320Z,101663.56
2023-05-13T07:01:42.260Z,101666.88
2023-05-13T07:04:08.752Z,101654.88
2023-05-13T07:06:35.886Z,101660.88
2023-05-13T07:09:07.988Z,101657.53
2023-05-13T07:11:35.349Z,101657.69
2023-05-13T07:14:01.842Z,101660.75
2023-05-13T07:16:28.198Z,101654.22
2023-05-13T07:18:54.618Z,101657.94
2023-05-13T07:21:21.743Z,101660.16
2023-05-13T07:23:48.100Z,101650.84
2023-05-13T07:26:14.458Z,101646.75
2023-05-13T07:28:40.847Z,101646.88
2023-05-13T07:31:07.502Z,101644.44
2023-05-13T07:33:34.031Z,101630.28
2023-05-13T07:36:00.410Z,101629.44
2023-05-13T07:38:26.774Z,101632.44
2023-05-13T07:40:53.245Z,101631.94
2023-05-13T07:43:23.776Z,101629.97
2023-05-13T07:45:51.325Z,101633.94
2023-05-13T07:48:18.533Z,101624.31
2023-05-13T07:50:45.801Z,101625.38
2023-05-13T07:53:12.352Z,101628.34
2023-05-13T07:55:38.745Z,101618.56
2023-05-13T07:58:06.382Z,101628.19
2023-05-13T08:00:32.878Z,101623.13
2023-05-13T08:03:03.537Z,101623.97
2023-05-13T08:05:30.068Z,101619.09
2023-05-13T08:07:56.444Z,101610.28
2023-05-13T08:10:22.830Z,101611.31
2023-05-13T08:12:53.591Z,101613.16
2023-05-13T08:15:20.041Z,101612.34
2023-05-13T08:17:46.559Z,101624.72
2023-05-13T08:20:15.052Z,101624.19
2023-05-13T08:22:42.899Z,101624.59
2023-05-13T08:25:11.196Z,101633.97
2023-05-13T08:27:37.603Z,101627.13
2023-05-13T08:30:05.471Z,101625.28
2023-05-13T08:32:31.900Z,101627.88
2023-05-13T08:34:58.500Z,101629.03
2023-05-13T08:37:24.873Z,101634.09
2023-05-13T08:39:51.368Z,101635.34
2023-05-13T08:42:21.663Z,101632.81
2023-05-13T08:44:49.058Z,101625.28
2023-05-13T08:47:53.184Z,101641.69
2023-05-13T08:50:20.467Z,101635.88
2023-05-13T08:52:47.117Z,101625.28
2023-05-13T08:55:13.848Z,101627.66
2023-05-13T08:57:40.216Z,101635.34
2023-05-13T09:00:08.589Z,101630.22
2023-05-13T09:02:35.012Z,101626.09
2023-05-13T09:05:06.455Z,101628.19
2023-05-13T09:07:34.041Z,101619.19
2023-05-13T09:10:00.619Z,101623.56
2023-05-13T09:12:46.682Z,101612.81
2023-05-13T09:15:15.697Z,101627.66
2023-05-13T09:17:43.887Z,101625.78
2023-05-13T09:20:15.264Z,101616.88
2023-05-13T09:23:01.673Z,101625.84
2023-05-13T09:25:28.924Z,101623.22
2023-05-13T09:28:00.914Z,101605.88
2023-05-13T09:30:33.326Z,101618.09
2023-05-13T09:33:11.481Z,101614.16
2023-05-13T09:35:40.283Z,101606.94
2023-05-13T09:38:15.065Z,101599.78
2023-05-13T09:40:42.165Z,101609.66
2023-05-13T09:43:08.675Z,101604.38
2023-05-13T09:45:36.116Z,101602.06
2023-05-13T09:48:03.231Z,101609.31
2023-05-13T09:50:31.425Z,101599.72
2023-05-13T09:52:57.833Z,101607.63
2023-05-13T09:55:24.245Z,101598.09
2023-05-13T09:57:53.189Z,101602.38
2023-05-13T10:00:31.717Z,101594.66
2023-05-13T10:02:59.022Z,101600.88
2023-05-13T10:05:26.079Z,101593.66
2023-05-13T10:07:52.695Z,101598.34
2023-05-13T10:10:20.003Z,101602.53
2023-05-13T10:12:46.941Z,101592.88
2023-05-13T10:15:13.841Z,101585.81
2023-05-13T10:17:41.446Z,101588.59
2023-05-13T10:20:08.369Z,101585.06
2023-05-13T10:22:34.861Z,101584.38
2023-05-13T10:25:02.987Z,101580.84
2023-05-13T10:27:33.570Z,101583.41
2023-05-13T10:30:03.556Z,101595.69
2023-05-13T10:32:31.534Z,101585.97
2023-05-13T10:35:08.827Z,101579.88
2023-05-13T10:37:50.122Z,101576.19
2023-05-13T10:40:31.632Z,101575.88
2023-05-13T10:43:17.093Z,101576.84
2023-05-13T10:45:51.858Z,101566.06
2023-05-13T10:48:18.909Z,101584.75
2023-05-13T10:51:01.410Z,101581.28
2023-05-13T10:53:36.104Z,101570.84
2023-05-13T10:56:07.740Z,101566.03
2023-05-13T10:58:39.202Z,101589.09
2023-05-13T11:01:19.427Z,101582.22
2023-05-13T11:03:54.230Z,101589.25
2023-05-13T11:06:23.744Z,101589.47
2023-05-13T11:08:53.588Z,101577.78
2023-05-13T11:11:22.354Z,101568.00
2023-05-13T11:13:52.394Z,101576.09
2023-05-13T11:16:18.836Z,101559.25
2023-05-13T11:18:45.316Z,101570.19
2023-05-13T11:21:11.735Z,101565.66
2023-05-13T11:23:56.991Z,101567.44
2023-05-13T11:26:23.503Z,101573.84
2023-05-13T11:28:54.063Z,101565.69
2023-05-13T11:31:21.504Z,101570.47
2023-05-13T11:34:09.681Z,101571.41
2023-05-13T11:36:37.861Z,101554.41
2023-05-13T11:39:14.621Z,101557.88
2023-05-13T11:41:43.263Z,101556.22
2023-05-13T11:44:11.274Z,101559.03
2023-05-13T11:46:37.640Z,101555.53
2023-05-13T11:49:06.494Z,101561.41
2023-05-13T11:51:34.211Z,101553.41
2023-05-13T11:54:03.075Z,101563.22
2023-05-13T11:56:30.092Z,101556.13
2023-05-13T11:59:14.242Z,101556.34
2023-05-13T12:01:40.605Z,101551.94
2023-05-13T12:04:07.869Z,101538.66
2023-05-13T12:06:35.324Z,101541.38
2023-05-13T12:09:06.688Z,101544.91
2023-05-13T12:11:33.882Z,101559.13
2023-05-13T12:14:00.992Z,101528.03
2023-05-13T12:16:27.510Z,101536.94
2023-05-13T12:19:04.621Z,101546.72
2023-05-13T12:21:32.357Z,101547.66
2023-05-13T12:23:58.956Z,101543.19
2023-05-13T12:26:25.942Z,101530.72
2023-05-13T12:28:59.569Z,101555.63
2023-05-13T12:31:26.358Z,101556.53
2023-05-13T12:33:53.084Z,101548.50
2023-05-13T12:36:23.165Z,101551.22
2023-05-13T12:39:07.574Z,101545.84
2023-05-13T12:41:36.412Z,101551.13
2023-05-13T12:44:11.349Z,101547.59
2023-05-13T12:46:37.980Z,101536.06
2023-05-13T12:49:05.836Z,101536.94
2023-05-13T12:51:35.121Z,101543.19
2023-05-13T12:54:01.685Z,101527.16
2023-05-13T12:56:28.065Z,101524.31
2023-05-13T12:58:54.470Z,101525.91
2023-05-13T13:01:21.467Z,101530.47
2023-05-13T13:03:48.070Z,101532.03
2023-05-13T13:06:14.951Z,101536.41
2023-05-13T13:08:41.385Z,101529.16
2023-05-13T13:11:07.808Z,101532.91
2023-05-13T13:13:34.570Z,101527.09
2023-05-13T13:16:02.036Z,101533.22
2023-05-13T13:18:28.546Z,101532.13
2023-05-13T13:20:55.278Z,101528.66
2023-05-13T13:23:21.846Z,101526.38
2023-05-13T13:25:48.303Z,101513.66
2023-05-13T13:28:14.704Z,101521.78
2023-05-13T13:30:46.297Z,101526.56
2023-05-13T13:33:14.890Z,101512.38
2023-05-13T13:35:43.482Z,101525.69
2023-05-13T13:38:10.034Z,101533.72
2023-05-13T13:40:36.739Z,101536.34
2023-05-13T13:43:04.102Z,101530.78
2023-05-13T13:45:31.251Z,101532.78
2023-05-13T13:47:58.207Z,101520.66
2023-05-13T13:50:24.759Z,101520.53
2023-05-13T13:52:52.413Z,101517.75
2023-05-13T13:55:22.632Z,101503.00
2023-05-13T13:57:49.092Z,101506.97
2023-05-13T14:00:16.617Z,101506.91
2023-05-13T14:02:43.796Z,101505.69
2023-05-13T14:05:11.586Z,101512.81
2023-05-13T14:07:38.106Z,101498.75
2023-05-13T14:10:05.549Z,101490.09
2023-05-13T14:12:31.972Z,101505.00
2023-05-13T14:14:58.639Z,101491.69
2023-05-13T14:17:25.080Z,101495.72
2023-05-13T14:19:51.784Z,101480.84
2023-05-13T14:22:18.334Z,101487.75
2023-05-13T14:24:44.706Z,101491.00
2023-05-13T14:27:11.086Z,101483.84
2023-05-13T14:29:37.663Z,101489.09
2023-05-13T14:32:04.447Z,101480.53
2023-05-13T14:34:32.895Z,101474.28
2023-05-13T14:36:59.338Z,101476.50
2023-05-13T14:39:25.743Z,101495.22
2023-05-13T14:41:52.154Z,101488.53
2023-05-13T14:44:18.530Z,101488.75
2023-05-13T14:46:45.188Z,101478.69
2023-05-13T14:49:11.606Z,101478.47
2023-05-13T14:51:37.970Z,101475.28
2023-05-13T14:54:04.468Z,101470.81
2023-05-13T14:56:30.840Z,101473.94
2023-05-13T14:58:57.794Z,101466.69
2023-05-13T15:01:24.284Z,101465.22
2023-05-13T15:03:50.690Z,101479.81
2023-05-13T15:06:17.089Z,101468.63
2023-05-13T15:08:43.536Z,101470.03
2023-05-13T15:11:09.916Z,101468.84
2023-05-13T15:13:37.165Z,101471.28
2023-05-13T15:16:04.414Z,101475.06
2023-05-13T15:18:31.379Z,101485.50
2023-05-13T15:20:57.913Z,101482.44
2023-05-13T15:23:24.272Z,101473.44
2023-05-13T15:25:51.227Z,101465.84
2023-05-13T15:28:17.592Z,101469.97
2023-05-13T15:30:43.979Z,101471.28
2023-05-13T15:33:10.390Z,101473.72
2023-05-13T15:35:36.810Z,101477.66
2023-05-13T15:38:03.418Z,101470.03
2023-05-13T15:40:29.955Z,101467.50
2023-05-13T15:42:56.461Z,101465.13
2023-05-13T15:45:22.848Z,101463.91
2023-05-13T15:47:50.463Z,101467.72
2023-05-13T15:50:16.957Z,101464.53
2023-05-13T15:52:43.415Z,101468.22
2023-05-13T15:55:09.805Z,101460.66
2023-05-13T15:57:36.312Z,101468.97
2023-05-13T16:00:02.693Z,101458.25
2023-05-13T16:02:36.385Z,101468.94
2023-05-13T16:05:02.994Z,101469.59
2023-05-13T16:07:29.379Z,101469.09
2023-05-13T16:09:56.011Z,101469.84
2023-05-13T16:12:22.385Z,101490.38
2023-05-13T16:14:48.827Z,101501.16
2023-05-13T16:17:16.106Z,101492.28
2023-05-13T16:19:42.476Z,101508.47
2023-05-13T16:22:44.436Z,101498.69
2023-05-13T16:25:11.475Z,101497.69
2023-05-13T16:27:39.317Z,101512.03
2023-05-13T16:30:07.466Z,101512.91
2023-05-13T16:32:34.839Z,101523.59
2023-05-13T16:35:01.632Z,101520.88
2023-05-13T16:37:28.366Z,101527.81
2023-05-13T16:39:54.783Z,101527.75
2023-05-13T16:42:21.166Z,101538.34
2023-05-13T16:44:47.748Z,101544.56
2023-05-13T16:47:14.428Z,101546.47
2023-05-13T16:49:41.079Z,101548.06
2023-05-13T16:52:07.721Z,101547.63
2023-05-13T16:54:34.237Z,101542.47
2023-05-13T16:57:00.709Z,101542.75
2023-05-13T16:59:27.698Z,101544.78
2023-05-13T17:01:54.769Z,101545.28
2023-05-13T17:04:21.483Z,101552.06
2023-05-13T17:06:47.923Z,101551.88
2023-05-13T17:09:14.557Z,101550.25
2023-05-13T17:11:41.102Z,101543.16
2023-05-13T17:14:07.633Z,101539.41
2023-05-13T17:16:34.258Z,101535.78
2023-05-13T17:19:00.800Z,101536.00
2023-05-13T17:21:27.271Z,101530.47
2023-05-13T17:23:54.084Z,101518.13
2023-05-13T17:26:21.951Z,101527.25
2023-05-13T17:28:49.709Z,101529.66
2023-05-13T17:31:16.374Z,101527.88
2023-05-13T17:33:42.958Z,101533.41
2023-05-13T17:36:09.761Z,101537.69
2023-05-13T17:38:37.062Z,101544.53
2023-05-13T17:41:03.656Z,101543.25
2023-05-13T17:43:30.129Z,101541.69
2023-05-13T17:45:56.874Z,101548.91
2023-05-13T17:48:23.470Z,101551.53
2023-05-13T17:50:49.979Z,101548.09
2023-05-13T17:53:16.410Z,101554.63
2023-05-13T17:55:42.942Z,101556.13
2023-05-13T17:58:09.339Z,101548.28
2023-05-13T18:00:35.886Z,101558.06
2023-05-13T18:03:02.320Z,101551.16
2023-05-13T18:05:28.831Z,101557.03
2023-05-13T18:07:56.761Z,101558.03
2023-05-13T18:10:23.592Z,101557.41
2023-05-13T18:12:51.783Z,101559.84
2023-05-13T18:15:18.514Z,101555.97
2023-05-13T18:17:45.186Z,101563.91
2023-05-13T18:20:12.458Z,101564.69
2023-05-13T18:22:39.088Z,101567.16
2023-05-13T18:25:07.266Z,101561.53
2023-05-13T18:27:34.385Z,101569.47
2023-05-13T18:30:01.158Z,101571.97
2023-05-13T18:32:27.555Z,101563.28
2023-05-13T18:34:53.986Z,101572.31
2023-05-13T18:37:20.377Z,101571.44
2023-05-13T18:39:46.832Z,101575.59
2023-05-13T18:42:13.240Z,101574.22
2023-05-13T18:44:39.674Z,101572.34
2023-05-13T18:47:06.535Z,101575.28
2023-05-13T18:49:33.078Z,101574.81
2023-05-13T18:52:00.413Z,101581.16
2023-05-13T18:54:29.369Z,101577.84
2023-05-13T18:56:59.119Z,101571.47
2023-05-13T18:59:25.836Z,101573.19
2023-05-13T19:01:52.470Z,101579.63
2023-05-13T19:04:19.225Z,101582.47
2023-05-13T19:06:45.930Z,101584.06
2023-05-13T19:09:12.334Z,101586.75
2023-05-13T19:11:38.837Z,101584.94
2023-05-13T19:14:05.574Z,101590.13
2023-05-13T19:16:32.196Z,101588.13
2023-05-13T19:18:58.792Z,101595.75
2023-05-13T19:21:25.442Z,101589.78
2023-05-13T19:23:51.882Z,101589.97
2023-05-13T19:26:18.613Z,101594.47
2023-05-13T19:28:45.865Z,101596.94
2023-05-13T19:31:12.379Z,101591.09
2023-05-13T19:33:42.916Z,101596.13
2023-05-13T19:36:10.721Z,101592.38
2023-05-13T19:38:37.080Z,101599.75
2023-05-13T19:41:03.680Z,101601.00
2023-05-13T19:43:30.051Z,101597.63
2023-05-13T19:45:57.759Z,101594.28
2023-05-13T19:48:24.125Z,101592.84
2023-05-13T19:50:53.553Z,101601.06
2023-05-13T19:53:21.631Z,101594.38
2023-05-13T19:55:48.029Z,101599.41
2023-05-13T19:58:14.452Z,101596.47
2023-05-13T20:00:40.842Z,101598.00
2023-05-13T20:03:07.442Z,101601.25
2023-05-13T20:05:33.890Z,101598.38
2023-05-13T20:08:00.398Z,101596.88
2023-05-13T20:10:26.771Z,101602.69
2023-05-13T20:12:53.260Z,101601.72
2023-05-13T20:15:19.724Z,101605.25
2023-05-13T20:17:46.190Z,101602.25
2023-05-13T20:20:12.624Z,101605.31
2023-05-13T20:22:39.060Z,101594.56
2023-05-13T20:25:05.783Z,101594.19
2023-05-13T20:27:32.171Z,101597.47
2023-05-13T20:30:00.116Z,101597.59
2023-05-13T20:32:26.583Z,101595.16
2023-05-13T20:34:54.339Z,101596.28
2023-05-13T20:37:23.943Z,101597.78
2023-05-13T20:39:50.726Z,101599.09
2023-05-13T20:42:17.267Z,101597.59
2023-05-13T20:44:45.839Z,101601.97
2023-05-13T20:47:12.250Z,101594.59
2023-05-13T20:49:39.779Z,101594.28
2023-05-13T20:52:08.491Z,101602.22
2023-05-13T20:54:36.370Z,101599.09
2023-05-13T20:57:03.445Z,101598.78
2023-05-13T20:59:30.762Z,101597.59
2023-05-13T21:01:57.529Z,101598.19
2023-05-13T21:04:25.480Z,101599.19
2023-05-13T21:06:52.465Z,101593.94
2023-05-13T21:09:18.860Z,101595.38
2023-05-13T21:11:45.788Z,101588.88
2023-05-13T21:14:12.233Z,101596.75
2023-05-13T21:16:38.606Z,101589.25
2023-05-13T21:19:05.148Z,101585.28
2023-05-13T21:21:32.085Z,101587.69
2023-05-13T21:23:58.515Z,101585.16
2023-05-13T21:26:25.183Z,101579.81
2023-05-13T21:28:51.624Z,101586.84
2023-05-13T21:31:18.014Z,101583.41
2023-05-13T21:33:44.428Z,101587.94
2023-05-13T21:36:10.824Z,101584.13
2023-05-13T21:38:37.173Z,101590.44
2023-05-13T21:41:03.600Z,101587.22
2023-05-13T21:43:30.084Z,101589.19
2023-05-13T21:45:56.455Z,101587.38
2023-05-13T21:48:22.917Z,101581.00
2023-05-13T21:50:49.330Z,101587.03
2023-05-13T21:53:15.708Z,101586.91
2023-05-13T21:55:42.096Z,101587.94
2023-05-13T21:58:08.499Z,101584.06
2023-05-13T22:00:34.908Z,101588.56
2023-05-13T22:03:01.730Z,101586.47
2023-05-13T22:05:28.387Z,101577.75
2023-05-13T22:07:55.093Z,101578.72
2023-05-13T22:10:21.725Z,101582.97
2023-05-13T22:12:48.421Z,101580.06
2023-05-13T22:15:14.856Z,101577.88
2023-05-13T22:17:41.400Z,101583.34
2023-05-13T22:20:08.306Z,101582.59
2023-05-13T22:22:34.713Z,101589.28
2023-05-13T22:25:01.105Z,101574.84
2023-05-13T22:27:27.472Z,101583.25
2023-05-13T22:29:53.855Z,101584.28
2023-05-13T22:32:20.256Z,101583.03
2023-05-13T22:34:46.655Z,101575.09
2023-05-13T22:37:13.024Z,101576.63
2023-05-13T22:39:39.418Z,101579.84
2023-05-13T22:42:05.988Z,101580.13
2023-05-13T22:44:32.394Z,101582.16
2023-05-13T22:46:58.795Z,101575.41
2023-05-13T22:49:25.290Z,101586.75
2023-05-13T22:51:51.905Z,101579.75
2023-05-13T22:54:18.281Z,101576.41
2023-05-13T22:56:44.693Z,101580.69
2023-05-13T22:59:11.711Z,101578.41
2023-05-13T23:01:38.187Z,101580.09
2023-05-13T23:04:05.700Z,101573.16
2023-05-13T23:06:32.249Z,101577.69
2023-05-13T23:08:58.667Z,101572.91
2023-05-13T23:11:25.068Z,101581.09
2023-05-13T23:13:51.461Z,101577.22
2023-05-13T23:16:19.093Z,101577.75
2023-05-13T23:18:45.686Z,101575.34
2023-05-13T23:21:12.145Z,101569.44
2023-05-13T23:23:38.497Z,101577.50
2023-05-13T23:26:05.813Z,101570.50
2023-05-13T23:28:32.902Z,101570.66
2023-05-13T23:30:59.297Z,101561.72
2023-05-13T23:33:25.678Z,101559.03
2023-05-13T23:35:56.208Z,101566.16
2023-05-13T23:38:23.081Z,101561.50
2023-05-13T23:40:49.452Z,101552.72
2023-05-13T23:43:16.151Z,101556.81
2023-05-13T23:45:42.612Z,101557.72
2023-05-13T23:48:09.217Z,101552.59
2023-05-13T23:50:35.672Z,101552.13
2023-05-13T23:53:02.036Z,101551.81
2023-05-13T23:55:28.400Z,101551.28
2023-05-13T23:57:55.088Z,101554.28
